createdAt,value
2018-08-17T00:00:49.269Z,13.30
2018-08-17T00:02:51.440Z,13.57
2018-08-17T00:04:53.641Z,15.83
2018-08-17T00:06:55.923Z,13.87
2018-08-17T00:08:58.229Z,13.50
2018-08-17T00:11:00.370Z,13.70
2018-08-17T00:13:02.726Z,14.60
2018-08-17T00:15:05.080Z,13.90
2018-08-17T00:17:07.242Z,14.97
2018-08-17T00:19:09.374Z,14.40
2018-08-17T00:21:11.602Z,15.00
2018-08-17T00:23:13.746Z,13.27
2018-08-17T00:25:16.082Z,14.60
2018-08-17T00:27:18.282Z,14.50
2018-08-17T00:29:20.440Z,13.30
2018-08-17T00:31:22.646Z,14.43
2018-08-17T00:33:24.827Z,13.93
2018-08-17T00:35:27.030Z,13.50
2018-08-17T00:37:29.286Z,15.03
2018-08-17T00:39:31.464Z,15.37
2018-08-17T00:41:33.667Z,15.10
2018-08-17T00:43:35.860Z,13.07
2018-08-17T00:45:38.285Z,14.07
2018-08-17T00:47:40.451Z,14.30
2018-08-17T00:49:42.613Z,14.30
2018-08-17T00:51:44.830Z,12.70
2018-08-17T00:53:46.995Z,14.43
2018-08-17T00:55:49.142Z,15.03
2018-08-17T00:57:51.570Z,16.70
2018-08-17T00:59:53.938Z,13.57
2018-08-17T01:01:56.129Z,13.83
2018-08-17T01:03:58.300Z,14.93
2018-08-17T01:06:00.560Z,13.37
2018-08-17T01:08:02.738Z,15.03
2018-08-17T01:10:05.175Z,13.73
2018-08-17T01:12:07.634Z,13.80
2018-08-17T01:14:09.765Z,14.27
2018-08-17T01:16:11.951Z,13.83
2018-08-17T01:18:20.710Z,14.63
2018-08-17T01:20:22.890Z,13.40
2018-08-17T01:22:25.096Z,12.93
2018-08-17T01:24:27.273Z,14.60
2018-08-17T01:26:29.427Z,14.10
2018-08-17T01:28:31.605Z,15.43
2018-08-17T01:30:33.847Z,15.20
2018-08-17T01:32:36.082Z,15.70
2018-08-17T01:34:38.325Z,15.20
2018-08-17T01:36:40.483Z,13.83
2018-08-17T01:38:42.637Z,14.83
2018-08-17T01:40:44.798Z,14.20
2018-08-17T01:42:47.122Z,14.10
2018-08-17T01:44:49.254Z,14.50
2018-08-17T01:46:51.408Z,14.67
2018-08-17T01:48:53.865Z,13.90
2018-08-17T01:50:56.018Z,14.07
2018-08-17T01:52:58.201Z,14.40
2018-08-17T01:55:00.402Z,14.70
2018-08-17T01:57:02.595Z,13.73
2018-08-17T01:59:04.761Z,15.10
2018-08-17T02:01:07.017Z,14.23
2018-08-17T02:03:09.196Z,15.03
2018-08-17T02:05:11.403Z,15.30
2018-08-17T02:07:13.610Z,16.67
2018-08-17T02:09:15.796Z,15.00
2018-08-17T02:11:17.975Z,15.00
2018-08-17T02:13:20.123Z,14.70
2018-08-17T02:15:22.277Z,14.00
2018-08-17T02:17:24.446Z,15.70
2018-08-17T02:19:26.622Z,14.90
2018-08-17T02:21:29.003Z,15.40
2018-08-17T02:23:31.184Z,15.23
2018-08-17T02:25:33.531Z,15.90
2018-08-17T02:27:35.728Z,15.10
2018-08-17T02:29:37.931Z,15.03
2018-08-17T02:31:40.258Z,16.47
2018-08-17T02:33:42.441Z,14.90
2018-08-17T02:35:44.649Z,16.10
2018-08-17T02:37:46.837Z,17.60
2018-08-17T02:39:49.019Z,15.37
2018-08-17T02:41:51.174Z,15.70
2018-08-17T02:43:53.320Z,15.10
2018-08-17T02:45:55.497Z,13.90
2018-08-17T02:47:57.658Z,15.10
2018-08-17T02:49:59.880Z,15.23
2018-08-17T02:52:02.091Z,16.27
2018-08-17T02:54:04.649Z,15.50
2018-08-17T02:56:06.904Z,16.17
2018-08-17T02:58:09.037Z,18.00
2018-08-17T03:00:11.213Z,16.43
2018-08-17T03:02:13.363Z,16.10
2018-08-17T03:04:15.530Z,16.60
2018-08-17T03:06:17.709Z,18.07
2018-08-17T03:08:19.896Z,16.57
2018-08-17T03:10:22.056Z,16.60
2018-08-17T03:12:24.194Z,15.70
2018-08-17T03:14:26.338Z,16.00
2018-08-17T03:16:28.474Z,16.83
2018-08-17T03:18:30.673Z,16.13
2018-08-17T03:20:32.836Z,16.60
2018-08-17T03:22:35.091Z,16.93
2018-08-17T03:24:37.238Z,17.30
2018-08-17T03:26:39.375Z,16.50
2018-08-17T03:28:41.545Z,17.87
2018-08-17T03:30:43.709Z,18.10
2018-08-17T03:32:46.266Z,16.33
2018-08-17T03:34:48.425Z,17.10
2018-08-17T03:36:50.598Z,18.00
2018-08-17T03:38:52.781Z,30.63
2018-08-17T03:40:54.944Z,32.30
2018-08-17T03:42:57.131Z,23.63
2018-08-17T03:44:59.318Z,21.93
2018-08-17T03:47:01.568Z,22.60
2018-08-17T03:49:04.298Z,22.43
2018-08-17T03:51:06.460Z,20.53
2018-08-17T03:53:08.628Z,21.03
2018-08-17T03:55:10.811Z,18.87
2018-08-17T03:57:12.974Z,18.70
2018-08-17T03:59:15.130Z,18.33
2018-08-17T04:01:17.296Z,17.77
2018-08-17T04:03:19.476Z,17.23
2018-08-17T04:05:21.656Z,17.27
2018-08-17T04:07:23.958Z,15.97
2018-08-17T04:09:26.122Z,18.53
2018-08-17T04:11:28.292Z,17.23
2018-08-17T04:13:30.455Z,18.80
2018-08-17T04:15:32.671Z,17.73
2018-08-17T04:17:34.886Z,19.43
2018-08-17T04:19:37.060Z,19.00
2018-08-17T04:21:39.262Z,19.87
2018-08-17T04:23:41.463Z,17.47
2018-08-17T04:25:43.654Z,20.17
2018-08-17T04:27:45.839Z,18.60
2018-08-17T04:29:48.059Z,18.90
2018-08-17T04:31:50.263Z,17.87
2018-08-17T04:33:52.406Z,20.50
2018-08-17T04:35:54.560Z,19.80
2018-08-17T04:37:56.923Z,18.23
2018-08-17T04:39:59.093Z,17.27
2018-08-17T04:42:01.271Z,20.73
2018-08-17T04:44:03.728Z,18.47
2018-08-17T04:46:05.991Z,15.23
2018-08-17T04:48:08.195Z,15.00
2018-08-17T04:50:10.383Z,15.27
2018-08-17T04:52:12.666Z,14.73
2018-08-17T04:54:14.840Z,15.50
2018-08-17T04:56:17.100Z,14.53
2018-08-17T04:58:19.250Z,16.07
2018-08-17T05:00:22.102Z,16.30
2018-08-17T05:02:24.296Z,16.47
2018-08-17T05:04:26.505Z,20.20
2018-08-17T05:06:29.245Z,20.20
2018-08-17T05:08:31.452Z,17.90
2018-08-17T05:10:33.664Z,19.73
2018-08-17T05:12:37.353Z,15.83
2018-08-17T05:14:42.297Z,15.70
2018-08-17T05:16:44.509Z,19.27
2018-08-17T05:18:46.747Z,19.50
2018-08-17T05:20:48.925Z,19.17
2018-08-17T05:22:51.335Z,20.27
2018-08-17T05:24:53.478Z,21.27
2018-08-17T05:26:55.805Z,20.33
2018-08-17T05:28:58.100Z,19.83
2018-08-17T05:31:00.485Z,19.80
2018-08-17T05:33:02.667Z,19.27
2018-08-17T05:35:04.891Z,17.13
2018-08-17T05:37:07.106Z,18.43
2018-08-17T05:39:09.734Z,19.40
2018-08-17T05:41:11.883Z,18.20
2018-08-17T05:43:14.037Z,17.83
2018-08-17T05:45:16.195Z,17.73
2018-08-17T05:47:18.362Z,18.00
2018-08-17T05:49:20.574Z,19.47
2018-08-17T05:51:22.739Z,19.70
2018-08-17T05:53:24.897Z,20.27
2018-08-17T05:55:27.253Z,19.97
2018-08-17T05:57:29.426Z,20.93
2018-08-17T05:59:31.776Z,18.50
2018-08-17T06:01:33.957Z,17.37
2018-08-17T06:03:36.117Z,19.57
2018-08-17T06:05:38.291Z,18.47
2018-08-17T06:07:40.553Z,19.23
2018-08-17T06:09:42.750Z,20.20
2018-08-17T06:11:44.961Z,20.00
2018-08-17T06:13:47.086Z,18.03
2018-08-17T06:15:49.249Z,20.20
2018-08-17T06:17:51.705Z,21.33
2018-08-17T06:19:54.003Z,21.40
2018-08-17T06:21:56.168Z,21.77
2018-08-17T06:23:58.750Z,20.67
2018-08-17T06:26:01.482Z,20.20
2018-08-17T06:30:13.419Z,24.23
2018-08-17T06:32:15.583Z,24.43
2018-08-17T06:34:17.754Z,25.33
2018-08-17T06:36:19.957Z,33.67
2018-08-17T06:38:22.154Z,25.90
2018-08-17T06:40:24.278Z,23.43
2018-08-17T06:42:26.592Z,24.83
2018-08-17T06:44:28.756Z,22.90
2018-08-17T06:46:31.014Z,22.00
2018-08-17T06:48:33.279Z,22.57
2018-08-17T06:50:35.557Z,21.50
2018-08-17T06:52:40.071Z,21.53
2018-08-17T06:54:42.885Z,22.30
2018-08-17T06:56:50.690Z,19.70
2018-08-17T06:58:53.508Z,20.47
2018-08-17T07:00:56.851Z,20.33
2018-08-17T07:03:01.812Z,18.43
2018-08-17T07:05:05.779Z,18.60
2018-08-17T07:07:09.316Z,19.33
2018-08-17T07:09:12.294Z,20.10
2018-08-17T07:11:14.987Z,19.37
2018-08-17T07:13:18.295Z,17.27
2018-08-17T07:15:21.505Z,15.90
2018-08-17T07:17:24.503Z,15.50
2018-08-17T07:19:27.234Z,13.47
2018-08-17T07:21:30.514Z,13.40
2018-08-17T07:23:33.209Z,12.60
2018-08-17T07:25:35.953Z,13.93
2018-08-17T07:27:38.909Z,12.20
2018-08-17T07:29:43.023Z,14.43
2018-08-17T07:31:46.583Z,12.50
2018-08-17T07:33:50.321Z,12.40
2018-08-17T07:35:53.178Z,11.77
2018-08-17T07:37:55.753Z,11.73
2018-08-17T07:39:58.935Z,13.03
2018-08-17T07:42:02.908Z,12.70
2018-08-17T07:44:06.545Z,11.20
2018-08-17T07:46:11.926Z,13.00
2018-08-17T07:48:14.813Z,11.43
2018-08-17T07:50:20.050Z,12.03
2018-08-17T07:52:24.269Z,12.77
2018-08-17T07:54:28.392Z,12.93
2018-08-17T07:56:31.081Z,13.53
2018-08-17T07:58:33.988Z,12.80
2018-08-17T08:00:37.706Z,12.03
2018-08-17T08:02:39.925Z,13.10
2018-08-17T08:04:42.082Z,12.83
2018-08-17T08:06:44.262Z,11.90
2018-08-17T08:08:46.414Z,11.93
2018-08-17T08:10:48.588Z,13.83
2018-08-17T08:12:50.754Z,12.47
2018-08-17T08:14:52.941Z,10.33
2018-08-17T08:16:55.427Z,11.33
2018-08-17T08:18:57.688Z,12.10
2018-08-17T08:20:59.842Z,11.40
2018-08-17T08:23:13.839Z,8.63
2018-08-17T08:25:15.993Z,8.73
2018-08-17T08:27:18.134Z,7.30
2018-08-17T08:29:20.272Z,7.30
2018-08-17T08:31:22.474Z,6.57
2018-08-17T08:33:24.650Z,7.10
2018-08-17T08:35:26.818Z,7.10
2018-08-17T08:37:28.953Z,5.73
2018-08-17T08:39:31.206Z,5.10
2018-08-17T08:41:33.346Z,5.00
2018-08-17T08:43:35.458Z,5.67
2018-08-17T08:45:37.688Z,4.73
2018-08-17T08:47:40.498Z,5.50
2018-08-17T08:49:42.635Z,5.60
2018-08-17T08:51:44.872Z,4.97
2018-08-17T08:53:47.074Z,5.30
2018-08-17T08:55:49.202Z,5.07
2018-08-17T08:57:51.548Z,5.13
2018-08-17T08:59:53.698Z,5.00
2018-08-17T09:01:55.861Z,5.03
2018-08-17T09:03:58.047Z,5.80
2018-08-17T09:06:00.255Z,6.17
2018-08-17T09:08:02.411Z,5.80
2018-08-17T09:10:05.856Z,5.77
2018-08-17T09:12:08.106Z,6.70
2018-08-17T09:14:10.321Z,5.93
2018-08-17T09:16:12.479Z,6.33
2018-08-17T09:18:14.626Z,5.90
2018-08-17T09:20:16.879Z,5.90
2018-08-17T09:22:18.979Z,6.33
2018-08-17T09:24:21.118Z,5.80
2018-08-17T09:26:23.279Z,5.60
2018-08-17T09:28:25.422Z,4.67
2018-08-17T09:30:27.542Z,4.43
2018-08-17T09:32:29.733Z,3.93
2018-08-17T09:34:31.853Z,4.20
2018-08-17T09:36:34.616Z,4.47
2018-08-17T09:38:36.765Z,4.77
2018-08-17T09:40:38.922Z,4.13
2018-08-17T09:42:41.079Z,3.60
2018-08-17T09:44:43.838Z,4.10
2018-08-17T09:46:46.030Z,3.70
2018-08-17T09:48:48.202Z,3.87
2018-08-17T09:50:50.348Z,4.30
2018-08-17T09:52:52.515Z,4.47
2018-08-17T09:54:54.694Z,4.37
2018-08-17T09:56:56.842Z,4.10
2018-08-17T09:58:59.075Z,4.17
2018-08-17T10:01:06.949Z,4.80
2018-08-17T10:03:14.673Z,4.60
2018-08-17T10:05:22.557Z,4.47
2018-08-17T10:07:30.626Z,5.10
2018-08-17T10:09:38.417Z,4.10
2018-08-17T10:11:40.647Z,4.30
2018-08-17T10:13:42.808Z,4.30
2018-08-17T10:15:45.802Z,4.20
2018-08-17T10:17:47.894Z,4.40
2018-08-17T10:19:50.121Z,4.50
2018-08-17T10:21:54.504Z,4.60
2018-08-17T10:23:56.654Z,4.40
2018-08-17T10:25:58.798Z,3.50
2018-08-17T10:28:00.922Z,3.73
2018-08-17T10:30:03.314Z,3.90
2018-08-17T10:32:05.479Z,4.20
2018-08-17T10:34:07.808Z,3.63
2018-08-17T10:36:09.846Z,4.00
2018-08-17T10:38:12.011Z,4.13
2018-08-17T10:40:14.173Z,4.10
2018-08-17T10:42:16.350Z,4.63
2018-08-17T10:44:18.474Z,4.70
2018-08-17T10:46:20.661Z,4.13
2018-08-17T10:48:22.822Z,4.77
2018-08-17T10:50:27.117Z,4.53
2018-08-17T10:52:29.250Z,4.40
2018-08-17T10:54:31.379Z,4.50
2018-08-17T10:56:33.664Z,5.30
2018-08-17T10:58:35.805Z,4.90
2018-08-17T11:00:37.920Z,4.80
2018-08-17T11:02:40.682Z,4.90
2018-08-17T11:04:43.264Z,5.20
2018-08-17T11:06:45.387Z,4.50
2018-08-17T11:08:47.544Z,4.40
2018-08-17T11:10:49.732Z,4.80
2018-08-17T11:12:51.858Z,4.60
2018-08-17T11:14:53.993Z,5.10
2018-08-17T11:16:56.236Z,5.17
2018-08-17T11:18:59.486Z,5.13
2018-08-17T11:21:01.633Z,4.90
2018-08-17T11:23:03.854Z,4.50
2018-08-17T11:25:06.938Z,5.30
2018-08-17T11:27:09.175Z,4.80
2018-08-17T11:29:11.350Z,4.80
2018-08-17T11:31:13.554Z,4.90
2018-08-17T11:33:15.734Z,5.37
2018-08-17T11:35:18.405Z,5.30
2018-08-17T11:37:21.125Z,5.20
2018-08-17T11:39:30.022Z,6.63
2018-08-17T11:41:32.226Z,5.77
2018-08-17T11:43:34.315Z,5.33
2018-08-17T11:45:38.226Z,5.30
2018-08-17T11:47:41.330Z,5.50
2018-08-17T11:49:43.490Z,4.77
2018-08-17T11:51:45.625Z,5.70
2018-08-17T11:53:48.299Z,6.67
2018-08-17T11:55:50.423Z,6.57
2018-08-17T11:57:52.680Z,6.63
2018-08-17T11:59:57.925Z,6.70
2018-08-17T12:02:00.147Z,7.30
2018-08-17T12:04:02.971Z,6.40
2018-08-17T12:06:05.586Z,5.50
2018-08-17T12:08:07.832Z,5.70
2018-08-17T12:10:10.018Z,6.23
2018-08-17T12:12:12.146Z,5.40
2018-08-17T12:14:14.291Z,5.87
2018-08-17T12:16:16.462Z,6.03
2018-08-17T12:18:18.954Z,6.20
2018-08-17T12:20:21.347Z,4.17
2018-08-17T12:22:23.493Z,4.63
2018-08-17T12:24:25.696Z,5.00
2018-08-17T12:26:28.003Z,5.00
2018-08-17T12:28:30.719Z,4.40
2018-08-17T12:30:33.219Z,4.87
2018-08-17T12:32:35.358Z,9.67
2018-08-17T12:34:37.699Z,5.80
2018-08-17T12:36:39.863Z,5.30
2018-08-17T12:38:43.172Z,6.27
2018-08-17T12:40:47.053Z,5.00
2018-08-17T12:42:49.288Z,4.87
2018-08-17T12:44:51.505Z,5.10
2018-08-17T12:46:53.650Z,5.37
2018-08-17T12:48:55.810Z,5.10
2018-08-17T12:51:03.314Z,4.97
2018-08-17T12:53:05.505Z,5.30
2018-08-17T12:55:07.818Z,5.80
2018-08-17T12:57:09.948Z,5.60
2018-08-17T12:59:12.377Z,5.37
2018-08-17T13:01:19.606Z,5.93
2018-08-17T13:03:21.763Z,5.70
2018-08-17T13:05:24.115Z,6.47
2018-08-17T13:07:26.254Z,5.80
2018-08-17T13:09:28.444Z,7.13
2018-08-17T13:11:30.633Z,5.97
2018-08-17T13:13:32.767Z,7.03
2018-08-17T13:15:35.416Z,7.13
2018-08-17T13:17:43.373Z,8.03
2018-08-17T13:19:45.531Z,7.73
2018-08-17T13:21:47.702Z,7.80
2018-08-17T13:23:49.831Z,8.40
2018-08-17T13:25:52.042Z,8.23
2018-08-17T13:27:54.179Z,7.83
2018-08-17T13:29:56.336Z,8.50
2018-08-17T13:31:58.711Z,9.17
2018-08-17T13:34:00.857Z,9.03
2018-08-17T13:36:03.012Z,8.67
2018-08-17T13:38:05.557Z,9.30
2018-08-17T13:40:08.538Z,8.10
2018-08-17T13:42:10.772Z,9.60
2018-08-17T13:44:12.906Z,10.27
2018-08-17T13:46:15.226Z,9.00
2018-08-17T13:48:17.349Z,9.60
2018-08-17T13:50:19.558Z,9.87
2018-08-17T13:52:21.706Z,10.70
2018-08-17T13:54:23.863Z,9.90
2018-08-17T13:56:25.954Z,10.63
2018-08-17T13:58:28.190Z,9.67
2018-08-17T14:00:30.376Z,10.60
2018-08-17T14:02:32.532Z,10.40
2018-08-17T14:04:34.836Z,9.30
2018-08-17T14:06:36.999Z,8.37
2018-08-17T14:08:39.139Z,10.27
2018-08-17T14:10:41.317Z,10.50
2018-08-17T14:12:43.790Z,13.03
2018-08-17T14:14:45.934Z,10.77
2018-08-17T14:16:48.115Z,10.30
2018-08-17T14:18:50.287Z,10.20
2018-08-17T14:20:52.446Z,9.33
2018-08-17T14:22:55.775Z,10.67
2018-08-17T14:24:58.025Z,9.57
2018-08-17T14:27:00.956Z,9.73
2018-08-17T14:29:03.194Z,9.20
2018-08-17T14:31:05.430Z,8.80
2018-08-17T14:33:07.558Z,9.40
2018-08-17T14:35:16.548Z,10.07
2018-08-17T14:39:27.478Z,9.73
2018-08-17T14:41:29.597Z,10.00
2018-08-17T14:43:32.193Z,10.10
2018-08-17T14:45:34.417Z,10.00
2018-08-17T14:47:37.018Z,9.50
2018-08-17T14:49:39.264Z,9.63
2018-08-17T14:51:41.468Z,10.83
2018-08-17T14:53:43.648Z,9.37
2018-08-17T14:55:45.825Z,10.80
2018-08-17T14:57:48.050Z,10.10
2018-08-17T14:59:50.382Z,8.90
2018-08-17T15:01:52.533Z,6.80
2018-08-17T15:03:54.666Z,6.37
2018-08-17T15:05:56.842Z,6.30
2018-08-17T15:07:59.030Z,5.80
2018-08-17T15:10:01.172Z,5.67
2018-08-17T15:12:03.342Z,5.57
2018-08-17T15:14:05.674Z,5.03
2018-08-17T15:16:07.825Z,5.20
2018-08-17T15:18:09.986Z,5.30
2018-08-17T15:20:12.566Z,4.60
2018-08-17T15:22:14.751Z,4.90
2018-08-17T15:24:16.884Z,5.17
2018-08-17T15:26:19.040Z,5.57
2018-08-17T15:28:21.177Z,5.90
2018-08-17T15:30:23.726Z,4.40
2018-08-17T15:32:26.006Z,9.00
2018-08-17T15:34:28.154Z,7.87
2018-08-17T15:36:30.321Z,4.60
2018-08-17T15:38:32.545Z,4.43
2018-08-17T15:40:34.822Z,4.10
2018-08-17T15:42:37.027Z,4.53
2018-08-17T15:44:39.243Z,4.13
2018-08-17T15:46:41.585Z,4.37
2018-08-17T15:48:49.710Z,4.23
2018-08-17T15:50:52.005Z,4.20
2018-08-17T15:52:54.182Z,4.00
2018-08-17T15:54:56.334Z,4.20
2018-08-17T15:56:58.866Z,5.90
2018-08-17T15:59:01.075Z,5.80
2018-08-17T16:01:03.508Z,4.60
2018-08-17T16:03:05.730Z,5.20
2018-08-17T16:05:07.883Z,4.20
2018-08-17T16:07:10.035Z,4.70
2018-08-17T16:09:13.112Z,4.10
2018-08-17T16:11:15.490Z,5.67
2018-08-17T16:13:17.753Z,6.10
2018-08-17T16:15:19.918Z,5.10
2018-08-17T16:17:22.150Z,6.97
2018-08-17T16:19:24.307Z,4.90
2018-08-17T16:21:26.542Z,4.70
2018-08-17T16:23:28.742Z,4.27
2018-08-17T16:25:30.925Z,4.50
2018-08-17T16:27:33.130Z,4.10
2018-08-17T16:29:35.337Z,4.40
2018-08-17T16:31:41.697Z,4.13
2018-08-17T16:33:43.878Z,4.70
2018-08-17T16:35:46.067Z,4.40
2018-08-17T16:37:48.266Z,4.87
2018-08-17T16:39:54.378Z,4.70
2018-08-17T16:41:56.787Z,4.30
2018-08-17T16:43:59.084Z,4.33
2018-08-17T16:46:01.314Z,3.77
2018-08-17T16:48:03.794Z,4.60
2018-08-17T16:50:07.122Z,6.70
2018-08-17T16:52:09.422Z,4.10
2018-08-17T16:54:11.753Z,4.07
2018-08-17T16:56:14.228Z,4.00
2018-08-17T16:58:16.741Z,4.70
2018-08-17T17:00:18.924Z,7.90
2018-08-17T17:02:21.115Z,4.40
2018-08-17T17:04:23.292Z,4.10
2018-08-17T17:06:25.495Z,4.33
2018-08-17T17:08:27.812Z,4.30
2018-08-17T17:10:30.688Z,4.00
2018-08-17T17:12:32.860Z,3.77
2018-08-17T17:14:35.030Z,3.63
2018-08-17T17:16:42.910Z,3.67
2018-08-17T17:18:45.074Z,3.00
2018-08-17T17:20:47.309Z,3.70
2018-08-17T17:22:49.415Z,3.40
2018-08-17T17:24:51.615Z,4.10
2018-08-17T17:26:53.844Z,4.50
2018-08-17T17:28:56.002Z,4.77
2018-08-17T17:30:58.413Z,3.60
2018-08-17T17:33:00.572Z,3.53
2018-08-17T17:35:03.095Z,2.83
2018-08-17T17:37:05.232Z,3.03
2018-08-17T17:39:10.590Z,3.23
2018-08-17T17:41:12.870Z,3.00
2018-08-17T17:43:15.038Z,3.10
2018-08-17T17:45:17.201Z,3.40
2018-08-17T17:47:19.511Z,4.80
2018-08-17T17:49:21.590Z,5.80
2018-08-17T17:51:23.777Z,17.23
2018-08-17T17:53:25.950Z,5.97
2018-08-17T17:55:41.081Z,3.70
2018-08-17T17:57:47.875Z,3.40
2018-08-17T17:59:56.649Z,3.80
2018-08-17T18:01:58.830Z,3.50
2018-08-17T18:04:00.979Z,2.97
2018-08-17T18:06:05.292Z,3.73
2018-08-17T18:08:13.006Z,3.37
2018-08-17T18:10:16.307Z,3.47
2018-08-17T18:12:18.501Z,3.47
2018-08-17T18:14:20.659Z,3.70
2018-08-17T18:16:22.838Z,6.13
2018-08-17T18:18:25.112Z,5.57
2018-08-17T18:20:27.324Z,3.40
2018-08-17T18:22:30.441Z,3.20
2018-08-17T18:24:32.577Z,3.07
2018-08-17T18:26:34.854Z,3.70
2018-08-17T18:28:37.172Z,3.13
2018-08-17T18:30:39.811Z,3.60
2018-08-17T18:32:42.106Z,3.10
2018-08-17T18:34:44.371Z,3.00
2018-08-17T18:36:46.613Z,3.50
2018-08-17T18:38:48.903Z,3.00
2018-08-17T18:40:51.139Z,3.20
2018-08-17T18:42:53.370Z,3.83
2018-08-17T18:44:55.747Z,3.67
2018-08-17T18:46:58.156Z,3.47
2018-08-17T18:49:00.413Z,3.37
2018-08-17T18:51:02.688Z,3.87
2018-08-17T18:53:04.861Z,21.40
2018-08-17T18:55:07.011Z,4.07
2018-08-17T18:57:09.195Z,5.90
2018-08-17T18:59:11.436Z,8.93
2018-08-17T19:01:13.589Z,3.70
2018-08-17T19:03:15.770Z,4.07
2018-08-17T19:05:17.922Z,7.13
2018-08-17T19:07:20.711Z,4.87
2018-08-17T19:09:22.893Z,5.07
2018-08-17T19:11:25.066Z,3.93
2018-08-17T19:13:27.225Z,4.13
2018-08-17T19:15:33.114Z,4.73
2018-08-17T19:17:35.346Z,4.03
2018-08-17T19:19:38.900Z,6.10
2018-08-17T19:21:41.120Z,12.60
2018-08-17T19:23:43.264Z,6.37
2018-08-17T19:25:45.710Z,4.90
2018-08-17T19:27:47.834Z,6.40
2018-08-17T19:29:50.614Z,7.93
2018-08-17T19:31:58.470Z,6.10
2018-08-17T19:34:00.771Z,8.00
2018-08-17T19:36:03.525Z,7.77
2018-08-17T19:38:05.739Z,12.63
2018-08-17T19:40:07.997Z,8.87
2018-08-17T19:42:10.414Z,10.43
2018-08-17T19:44:12.596Z,9.70
2018-08-17T19:46:14.980Z,6.57
2018-08-17T19:48:17.031Z,6.47
2018-08-17T19:50:19.199Z,7.47
2018-08-17T19:52:21.320Z,6.80
2018-08-17T19:54:23.491Z,4.93
2018-08-17T19:58:34.531Z,5.47
2018-08-17T20:00:36.732Z,6.63
2018-08-17T20:02:38.929Z,6.90
2018-08-17T20:04:41.070Z,6.80
2018-08-17T20:06:43.722Z,8.70
2018-08-17T20:08:45.963Z,7.77
2018-08-17T20:10:48.143Z,7.70
2018-08-17T20:12:50.319Z,11.80
2018-08-17T20:14:52.474Z,11.10
2018-08-17T20:16:55.913Z,8.80
2018-08-17T20:18:59.166Z,7.33
2018-08-17T20:21:01.402Z,7.83
2018-08-17T20:23:03.583Z,7.57
2018-08-17T20:25:09.842Z,7.47
2018-08-17T20:27:12.831Z,10.47
2018-08-17T20:29:14.960Z,8.40
2018-08-17T20:31:18.656Z,8.33
2018-08-17T20:33:26.417Z,9.57
2018-08-17T20:35:28.600Z,9.57
2018-08-17T20:37:30.761Z,11.60
2018-08-17T20:39:36.470Z,11.73
2018-08-17T20:41:38.842Z,12.63
2018-08-17T20:43:41.335Z,11.80
2018-08-17T20:45:43.568Z,12.00
2018-08-17T20:47:45.895Z,10.53
2018-08-17T20:49:48.163Z,9.77
2018-08-17T20:51:55.955Z,10.77
2018-08-17T20:53:59.881Z,10.90
2018-08-17T20:56:02.217Z,10.70
2018-08-17T20:58:04.679Z,9.97
2018-08-17T21:00:06.842Z,12.50
2018-08-17T21:02:09.126Z,12.70
2018-08-17T21:04:11.288Z,13.00
2018-08-17T21:06:13.435Z,10.30
2018-08-17T21:08:15.616Z,12.20
2018-08-17T21:10:17.902Z,13.57
2018-08-17T21:12:20.103Z,9.87
2018-08-17T21:14:22.223Z,7.87
2018-08-17T21:16:24.697Z,8.03
2018-08-17T21:18:26.844Z,10.43
2018-08-17T21:20:28.985Z,8.23
2018-08-17T21:22:31.162Z,10.00
2018-08-17T21:24:33.277Z,8.13
2018-08-17T21:26:35.435Z,9.33
2018-08-17T21:28:37.577Z,9.57
2018-08-17T21:30:39.976Z,9.37
2018-08-17T21:32:42.213Z,7.60
2018-08-17T21:34:44.462Z,12.53
2018-08-17T21:36:46.619Z,10.57
2018-08-17T21:39:10.751Z,11.97
2018-08-17T21:41:12.931Z,10.87
2018-08-17T21:43:16.518Z,13.30
2018-08-17T21:45:18.737Z,10.13
2018-08-17T21:47:20.907Z,9.50
2018-08-17T21:49:24.286Z,10.13
2018-08-17T21:51:31.042Z,10.27
2018-08-17T21:53:33.889Z,10.90
2018-08-17T21:55:36.066Z,13.70
2018-08-17T21:57:38.234Z,15.20
2018-08-17T21:59:47.137Z,12.80
2018-08-17T22:01:49.584Z,11.33
2018-08-17T22:03:51.936Z,11.27
2018-08-17T22:05:54.080Z,11.90
2018-08-17T22:07:56.346Z,11.97
2018-08-17T22:09:58.499Z,13.27
2018-08-17T22:12:00.718Z,11.00
2018-08-17T22:14:03.155Z,11.20
2018-08-17T22:16:05.336Z,10.60
2018-08-17T22:18:07.526Z,9.97
2018-08-17T22:20:10.043Z,9.57
2018-08-17T22:22:12.498Z,8.80
2018-08-17T22:24:14.626Z,9.50
2018-08-17T22:26:17.285Z,8.73
2018-08-17T22:28:19.518Z,8.83
2018-08-17T22:30:23.797Z,9.30
2018-08-17T22:32:25.965Z,8.60
2018-08-17T22:34:28.113Z,12.53
2018-08-17T22:36:30.915Z,11.30
2018-08-17T22:38:37.997Z,9.00
2018-08-17T22:40:40.148Z,8.90
2018-08-17T22:42:43.754Z,8.20
2018-08-17T22:44:46.485Z,8.73
2018-08-17T22:46:58.862Z,7.70
2018-08-17T22:49:01.012Z,7.60
2018-08-17T22:51:03.243Z,9.30
2018-08-17T22:53:05.426Z,9.00
2018-08-17T22:55:08.349Z,7.47
2018-08-17T22:57:10.838Z,8.30
2018-08-17T22:59:13.039Z,7.70
2018-08-17T23:01:15.832Z,8.57
2018-08-17T23:03:17.992Z,8.27
2018-08-17T23:05:28.305Z,7.97
2018-08-17T23:07:30.484Z,8.23
2018-08-17T23:09:32.849Z,8.97
2018-08-17T23:11:36.617Z,8.30
2018-08-17T23:13:38.826Z,8.57
2018-08-17T23:15:41.026Z,8.17
2018-08-17T23:17:48.151Z,7.90
2018-08-17T23:19:50.317Z,7.30
2018-08-17T23:21:52.499Z,9.50
2018-08-17T23:23:54.702Z,20.33
2018-08-17T23:25:56.822Z,19.03
2018-08-17T23:27:59.060Z,10.80
2018-08-17T23:30:01.182Z,10.03
2018-08-17T23:32:03.453Z,10.40
2018-08-17T23:34:05.629Z,9.03
2018-08-17T23:36:07.813Z,10.50
2018-08-17T23:38:09.969Z,10.30
2018-08-17T23:40:12.212Z,9.90
2018-08-17T23:42:14.359Z,11.07
2018-08-17T23:44:16.503Z,10.27
2018-08-17T23:46:18.898Z,10.87
2018-08-17T23:48:21.118Z,10.63
2018-08-17T23:50:23.372Z,9.77
2018-08-17T23:52:25.572Z,8.57
2018-08-17T23:54:27.707Z,9.37
2018-08-17T23:56:29.925Z,12.30
2018-08-17T23:58:32.078Z,12.23
